createdAt,value
2023-04-23T00:01:20.668Z,47.48
2023-04-23T00:03:50.964Z,47.49
2023-04-23T00:06:19.918Z,47.62
2023-04-23T00:08:53.271Z,47.69
2023-04-23T00:11:22.341Z,47.80
2023-04-23T00:13:51.045Z,47.71
2023-04-23T00:16:21.455Z,47.81
2023-04-23T00:18:49.574Z,47.96
2023-04-23T00:21:17.778Z,47.81
2023-04-23T00:23:46.221Z,48.09
2023-04-23T00:26:17.492Z,48.27
2023-04-23T00:28:45.498Z,48.42
2023-04-23T00:31:13.855Z,48.51
2023-04-23T00:33:42.180Z,48.62
2023-04-23T00:36:10.263Z,48.40
2023-04-23T00:38:38.604Z,48.41
2023-04-23T00:41:08.393Z,48.57
2023-04-23T00:43:39.820Z,49.08
2023-04-23T00:46:08.762Z,49.02
2023-04-23T00:48:38.200Z,49.49
2023-04-23T00:51:07.886Z,49.44
2023-04-23T00:53:36.077Z,49.94
2023-04-23T00:56:07.154Z,49.93
2023-04-23T00:58:35.860Z,49.47
2023-04-23T01:01:07.157Z,49.27
2023-04-23T01:03:37.986Z,49.48
2023-04-23T01:06:07.419Z,49.56
2023-04-23T01:08:36.501Z,49.52
2023-04-23T01:11:04.792Z,49.45
2023-04-23T01:13:33.090Z,49.61
2023-04-23T01:16:01.592Z,49.70
2023-04-23T01:18:31.295Z,49.53
2023-04-23T01:21:00.245Z,49.59
2023-04-23T01:23:30.139Z,49.47
2023-04-23T01:25:59.148Z,49.85
2023-04-23T01:28:27.777Z,50.26
2023-04-23T01:30:57.755Z,50.51
2023-04-23T01:33:27.217Z,50.50
2023-04-23T01:35:56.585Z,51.17
2023-04-23T01:38:26.397Z,51.07
2023-04-23T01:40:55.857Z,51.35
2023-04-23T01:43:24.550Z,51.93
2023-04-23T01:45:52.961Z,51.89
2023-04-23T01:48:21.574Z,51.90
2023-04-23T01:50:49.793Z,52.37
2023-04-23T01:53:18.438Z,52.13
2023-04-23T01:55:49.339Z,52.55
2023-04-23T01:58:19.747Z,52.42
2023-04-23T02:00:48.533Z,52.65
2023-04-23T02:03:17.219Z,53.00
2023-04-23T02:05:46.447Z,52.30
2023-04-23T02:08:14.944Z,53.01
2023-04-23T02:10:43.400Z,52.67
2023-04-23T02:13:11.847Z,53.55
2023-04-23T02:15:43.364Z,53.52
2023-04-23T02:18:12.789Z,53.24
2023-04-23T02:20:41.634Z,52.83
2023-04-23T02:23:10.611Z,52.97
2023-04-23T02:25:39.973Z,52.80
2023-04-23T02:28:08.770Z,52.59
2023-04-23T02:30:37.399Z,53.59
2023-04-23T02:33:07.642Z,53.20
2023-04-23T02:35:36.020Z,52.75
2023-04-23T02:38:04.666Z,53.16
2023-04-23T02:40:33.158Z,52.77
2023-04-23T02:43:01.760Z,52.97
2023-04-23T02:45:29.885Z,52.63
2023-04-23T02:47:58.622Z,53.01
2023-04-23T02:50:28.231Z,52.81
2023-04-23T02:52:56.401Z,53.03
2023-04-23T02:55:25.603Z,52.87
2023-04-23T02:57:53.833Z,53.32
2023-04-23T03:00:22.688Z,52.89
2023-04-23T03:02:51.034Z,53.33
2023-04-23T03:05:19.561Z,53.25
2023-04-23T03:07:49.169Z,53.06
2023-04-23T03:10:17.268Z,53.52
2023-04-23T03:12:45.594Z,53.21
2023-04-23T03:15:14.143Z,53.35
2023-04-23T03:17:42.553Z,53.66
2023-04-23T03:20:13.358Z,53.35
2023-04-23T03:22:42.036Z,53.22
2023-04-23T03:25:12.128Z,53.44
2023-04-23T03:27:41.454Z,53.84
2023-04-23T03:30:11.216Z,53.89
2023-04-23T03:32:39.724Z,53.93
2023-04-23T03:35:09.656Z,54.27
2023-04-23T03:37:40.426Z,54.07
2023-04-23T03:40:12.825Z,54.47
2023-04-23T03:42:42.771Z,54.47
2023-04-23T03:45:14.590Z,54.41
2023-04-23T03:47:43.102Z,54.79
2023-04-23T03:50:13.547Z,54.82
2023-04-23T03:52:43.738Z,54.96
2023-04-23T03:55:20.673Z,55.13
2023-04-23T03:57:49.238Z,55.65
2023-04-23T04:00:23.033Z,55.76
2023-04-23T04:02:51.366Z,55.71
2023-04-23T04:05:19.914Z,55.68
2023-04-23T04:07:48.208Z,55.70
2023-04-23T04:10:19.842Z,54.87
2023-04-23T04:12:48.337Z,55.67
2023-04-23T04:15:17.839Z,56.23
2023-04-23T04:17:46.673Z,54.78
2023-04-23T04:20:15.170Z,54.46
2023-04-23T04:22:43.696Z,54.74
2023-04-23T04:25:13.611Z,55.72
2023-04-23T04:27:43.759Z,56.73
2023-04-23T04:30:12.643Z,56.96
2023-04-23T04:32:42.426Z,57.38
2023-04-23T04:35:10.662Z,58.12
2023-04-23T04:37:38.789Z,58.91
2023-04-23T04:40:09.130Z,59.99
2023-04-23T04:42:37.442Z,60.50
2023-04-23T04:45:08.808Z,60.45
2023-04-23T04:47:36.930Z,60.25
2023-04-23T04:50:05.725Z,60.84
2023-04-23T04:52:33.965Z,60.08
2023-04-23T04:55:01.953Z,60.32
2023-04-23T04:57:29.956Z,59.49
2023-04-23T04:59:58.053Z,60.06
2023-04-23T05:02:27.980Z,60.65
2023-04-23T05:04:56.247Z,60.93
2023-04-23T05:07:24.193Z,62.12
2023-04-23T05:09:52.315Z,62.38
2023-04-23T05:12:20.710Z,62.63
2023-04-23T05:14:48.705Z,62.05
2023-04-23T05:17:16.866Z,62.95
2023-04-23T05:19:46.224Z,62.31
2023-04-23T05:22:14.238Z,62.82
2023-04-23T05:24:42.535Z,62.50
2023-04-23T05:27:11.274Z,62.00
2023-04-23T05:29:41.331Z,61.92
2023-04-23T05:32:10.123Z,61.13
2023-04-23T05:34:38.204Z,60.56
2023-04-23T05:37:08.130Z,59.65
2023-04-23T05:39:36.515Z,59.97
2023-04-23T05:42:05.105Z,60.75
2023-04-23T05:44:33.162Z,61.51
2023-04-23T05:47:01.656Z,62.42
2023-04-23T05:49:30.369Z,62.45
2023-04-23T05:51:59.645Z,62.98
2023-04-23T05:54:29.395Z,63.37
2023-04-23T05:56:57.718Z,64.01
2023-04-23T05:59:26.520Z,64.00
2023-04-23T06:01:54.980Z,65.13
2023-04-23T06:04:23.758Z,65.61
2023-04-23T06:06:51.946Z,65.72
2023-04-23T06:09:19.968Z,66.04
2023-04-23T06:11:50.660Z,65.87
2023-04-23T06:14:19.220Z,65.22
2023-04-23T06:16:48.635Z,66.17
2023-04-23T06:19:16.971Z,65.52
2023-04-23T06:21:45.390Z,65.68
2023-04-23T06:24:13.679Z,65.67
2023-04-23T06:26:42.059Z,65.67
2023-04-23T06:29:17.688Z,64.99
2023-04-23T06:31:56.482Z,64.86
2023-04-23T06:34:26.786Z,65.19
2023-04-23T06:36:55.754Z,64.89
2023-04-23T06:39:24.046Z,64.68
2023-04-23T06:41:52.391Z,64.74
2023-04-23T06:44:40.706Z,65.18
2023-04-23T06:47:09.107Z,65.14
2023-04-23T06:49:37.111Z,64.06
2023-04-23T06:52:05.143Z,64.97
2023-04-23T06:54:33.385Z,64.86
2023-04-23T06:57:01.585Z,64.78
2023-04-23T06:59:29.866Z,65.11
2023-04-23T07:02:01.013Z,66.64
2023-04-23T07:04:29.285Z,67.24
2023-04-23T07:06:57.494Z,66.70
2023-04-23T07:09:25.716Z,66.34
2023-04-23T07:11:54.083Z,67.03
2023-04-23T07:14:22.108Z,66.48
2023-04-23T07:16:50.503Z,66.04
2023-04-23T07:19:20.196Z,65.75
2023-04-23T07:21:48.503Z,65.56
2023-04-23T07:24:16.717Z,65.82
2023-04-23T07:26:44.718Z,65.40
2023-04-23T07:29:14.197Z,66.12
2023-04-23T07:31:43.003Z,65.96
2023-04-23T07:34:11.260Z,65.71
2023-04-23T07:36:40.994Z,65.75
2023-04-23T07:39:13.353Z,66.07
2023-04-23T07:41:42.161Z,66.21
2023-04-23T07:44:10.970Z,67.75
2023-04-23T07:46:39.458Z,68.30
2023-04-23T07:49:08.057Z,68.79
2023-04-23T07:51:36.227Z,67.98
2023-04-23T07:54:06.154Z,68.03
2023-04-23T07:56:34.540Z,67.93
2023-04-23T07:59:02.821Z,67.19
2023-04-23T08:01:31.268Z,66.97
2023-04-23T08:04:01.121Z,67.93
2023-04-23T08:06:31.398Z,69.49
2023-04-23T08:09:00.404Z,70.55
2023-04-23T08:11:30.460Z,70.17
2023-04-23T08:13:58.667Z,71.27
2023-04-23T08:16:26.943Z,70.47
2023-04-23T08:19:04.929Z,69.88
2023-04-23T08:21:34.634Z,70.98
2023-04-23T08:24:03.631Z,71.57
2023-04-23T08:26:33.139Z,70.83
2023-04-23T08:29:02.037Z,70.80
2023-04-23T08:31:30.297Z,71.24
2023-04-23T08:33:59.508Z,70.42
2023-04-23T08:36:28.509Z,69.76
2023-04-23T08:38:56.541Z,69.53
2023-04-23T08:41:28.864Z,68.93
2023-04-23T08:44:13.826Z,68.71
2023-04-23T08:46:45.055Z,68.63
2023-04-23T08:49:17.111Z,67.56
2023-04-23T08:51:50.799Z,66.70
2023-04-23T08:54:26.238Z,66.08
2023-04-23T08:56:58.794Z,66.76
2023-04-23T08:59:31.782Z,65.68
2023-04-23T09:02:01.753Z,65.61
2023-04-23T09:04:31.925Z,66.02
2023-04-23T09:07:04.838Z,64.76
2023-04-23T09:09:35.111Z,62.96
2023-04-23T09:12:03.480Z,63.09
2023-04-23T09:14:33.249Z,61.94
2023-04-23T09:17:01.584Z,59.60
2023-04-23T09:19:33.978Z,58.51
2023-04-23T09:22:02.687Z,56.71
2023-04-23T09:24:31.524Z,56.75
2023-04-23T09:27:00.919Z,57.03
2023-04-23T09:29:28.915Z,57.02
2023-04-23T09:32:07.516Z,56.28
2023-04-23T09:34:37.803Z,58.06
2023-04-23T09:37:11.041Z,59.10
2023-04-23T09:39:41.422Z,61.30
2023-04-23T09:42:12.463Z,60.70
2023-04-23T09:44:40.688Z,58.94
2023-04-23T09:47:12.257Z,58.83
2023-04-23T09:49:47.946Z,59.25
2023-04-23T09:52:16.418Z,60.63
2023-04-23T09:54:46.904Z,60.95
2023-04-23T09:57:15.429Z,60.45
2023-04-23T09:59:48.886Z,61.20
2023-04-23T10:02:20.121Z,61.74
2023-04-23T10:05:03.445Z,62.26
2023-04-23T10:07:36.099Z,59.27
2023-04-23T10:10:04.772Z,59.88
2023-04-23T10:12:52.247Z,60.04
2023-04-23T10:15:23.912Z,58.94
2023-04-23T10:17:54.913Z,58.67
2023-04-23T10:20:25.052Z,58.45
2023-04-23T10:22:56.438Z,58.22
2023-04-23T10:25:27.054Z,57.54
2023-04-23T10:27:56.936Z,58.42
2023-04-23T10:30:26.271Z,59.36
2023-04-23T10:32:58.148Z,60.75
2023-04-23T10:35:26.623Z,58.75
2023-04-23T10:37:55.549Z,58.21
2023-04-23T10:40:32.118Z,57.12
2023-04-23T10:43:01.773Z,56.90
2023-04-23T10:45:33.081Z,56.37
2023-04-23T10:48:04.562Z,56.13
2023-04-23T10:50:38.679Z,56.86
2023-04-23T10:53:21.593Z,54.25
2023-04-23T10:55:52.424Z,55.46
2023-04-23T10:58:22.269Z,54.70
2023-04-23T11:00:52.411Z,53.14
2023-04-23T11:03:43.991Z,52.52
2023-04-23T11:06:16.650Z,51.29
2023-04-23T11:08:55.352Z,52.44
2023-04-23T11:11:41.140Z,51.07
2023-04-23T11:14:15.142Z,48.15
2023-04-23T11:16:43.569Z,48.02
2023-04-23T11:19:13.687Z,47.15
2023-04-23T11:22:01.497Z,46.30
2023-04-23T11:24:31.523Z,46.46
2023-04-23T11:27:01.279Z,45.64
2023-04-23T11:29:30.147Z,44.96
2023-04-23T11:32:03.261Z,44.29
2023-04-23T11:34:34.819Z,43.87
2023-04-23T11:37:05.094Z,44.36
2023-04-23T11:39:34.336Z,44.11
2023-04-23T11:42:05.384Z,43.02
2023-04-23T11:44:34.572Z,42.32
2023-04-23T11:47:04.483Z,42.80
2023-04-23T11:49:34.609Z,44.03
2023-04-23T11:52:03.075Z,44.49
2023-04-23T11:54:31.347Z,45.06
2023-04-23T11:56:59.960Z,43.85
2023-04-23T11:59:29.302Z,42.12
2023-04-23T12:01:59.691Z,42.87
2023-04-23T12:04:30.034Z,42.23
2023-04-23T12:07:00.746Z,42.06
2023-04-23T12:09:30.874Z,41.50
2023-04-23T12:11:59.535Z,41.79
2023-04-23T12:14:30.056Z,42.68
2023-04-23T12:16:59.813Z,41.62
2023-04-23T12:19:30.975Z,41.89
2023-04-23T12:22:02.563Z,42.04
2023-04-23T12:24:32.619Z,42.07
2023-04-23T12:27:03.147Z,43.01
2023-04-23T12:29:32.081Z,42.50
2023-04-23T12:32:01.378Z,44.38
2023-04-23T12:34:29.590Z,42.10
2023-04-23T12:36:58.030Z,41.03
2023-04-23T12:39:34.091Z,40.27
2023-04-23T12:42:05.369Z,40.67
2023-04-23T12:44:35.773Z,40.65
2023-04-23T12:47:07.290Z,40.73
2023-04-23T12:49:38.500Z,41.72
2023-04-23T12:52:08.297Z,40.27
2023-04-23T12:54:39.580Z,40.71
2023-04-23T12:57:14.385Z,42.13
2023-04-23T12:59:42.877Z,42.15
2023-04-23T13:02:11.427Z,42.93
2023-04-23T13:04:39.677Z,42.11
2023-04-23T13:07:09.452Z,38.99
2023-04-23T13:09:39.171Z,39.72
2023-04-23T13:12:07.888Z,39.74
2023-04-23T13:14:36.265Z,37.71
2023-04-23T13:17:04.498Z,39.36
2023-04-23T13:19:34.303Z,39.50
2023-04-23T13:22:04.574Z,39.41
2023-04-23T13:24:32.788Z,39.58
2023-04-23T13:27:02.625Z,38.67
2023-04-23T13:29:30.594Z,38.03
2023-04-23T13:31:59.260Z,39.35
2023-04-23T13:34:27.515Z,42.31
2023-04-23T13:36:55.634Z,42.17
2023-04-23T13:39:23.872Z,38.33
2023-04-23T13:42:06.082Z,39.89
2023-04-23T13:44:38.615Z,42.79
2023-04-23T13:47:06.928Z,42.66
2023-04-23T13:49:35.202Z,41.99
2023-04-23T13:52:07.068Z,41.19
2023-04-23T13:54:36.209Z,40.45
2023-04-23T13:57:05.891Z,40.97
2023-04-23T13:59:35.132Z,41.31
2023-04-23T14:02:04.440Z,42.01
2023-04-23T14:04:32.545Z,42.75
2023-04-23T14:07:00.677Z,44.24
2023-04-23T14:09:29.882Z,44.04
2023-04-23T14:11:58.338Z,44.38
2023-04-23T14:14:26.576Z,44.11
2023-04-23T14:16:54.570Z,44.22
2023-04-23T14:19:24.434Z,43.75
2023-04-23T14:21:52.578Z,43.32
2023-04-23T14:24:25.306Z,43.08
2023-04-23T14:26:53.810Z,43.29
2023-04-23T14:29:32.736Z,43.24
2023-04-23T14:32:00.879Z,42.99
2023-04-23T14:34:30.601Z,42.23
2023-04-23T14:36:59.444Z,42.33
2023-04-23T14:39:29.286Z,42.45
2023-04-23T14:41:58.027Z,43.00
2023-04-23T14:44:26.825Z,43.85
2023-04-23T14:46:55.536Z,44.17
2023-04-23T14:49:24.743Z,44.63
2023-04-23T14:51:55.181Z,44.39
2023-04-23T14:54:24.224Z,44.75
2023-04-23T14:56:53.401Z,44.69
2023-04-23T14:59:22.930Z,44.16
2023-04-23T15:01:51.346Z,43.41
2023-04-23T15:04:20.281Z,43.32
2023-04-23T15:06:48.446Z,43.64
2023-04-23T15:09:18.220Z,43.92
2023-04-23T15:11:46.660Z,43.31
2023-04-23T15:14:26.102Z,43.52
2023-04-23T15:16:54.807Z,44.04
2023-04-23T15:19:23.095Z,44.07
2023-04-23T15:21:51.711Z,45.12
2023-04-23T15:24:21.425Z,44.71
2023-04-23T15:26:53.538Z,44.17
2023-04-23T15:29:23.016Z,44.43
2023-04-23T15:31:51.989Z,44.93
2023-04-23T15:34:20.263Z,45.78
2023-04-23T15:36:48.452Z,46.11
2023-04-23T15:39:16.666Z,46.00
2023-04-23T15:41:46.600Z,46.12
2023-04-23T15:44:14.635Z,46.68
2023-04-23T15:49:11.078Z,47.87
2023-04-23T15:51:39.225Z,47.49
2023-04-23T15:54:09.074Z,47.51
2023-04-23T15:56:38.180Z,48.10
2023-04-23T15:59:07.938Z,48.45
2023-04-23T16:01:36.492Z,49.07
2023-04-23T16:04:10.933Z,49.35
2023-04-23T16:06:40.191Z,49.02
2023-04-23T16:09:08.890Z,49.65
2023-04-23T16:11:38.901Z,50.38
2023-04-23T16:14:10.232Z,50.99
2023-04-23T16:16:39.797Z,51.30
2023-04-23T16:19:07.931Z,51.67
2023-04-23T16:21:36.254Z,52.33
2023-04-23T16:24:05.314Z,52.49
2023-04-23T16:26:33.487Z,52.16
2023-04-23T16:31:34.623Z,53.20
2023-04-23T16:34:03.152Z,53.88
2023-04-23T16:36:32.514Z,54.38
2023-04-23T16:39:00.525Z,54.48
2023-04-23T16:41:29.390Z,54.97
2023-04-23T16:43:57.733Z,56.25
2023-04-23T16:46:30.188Z,56.77
2023-04-23T16:49:00.278Z,56.53
2023-04-23T16:51:29.684Z,56.84
2023-04-23T16:53:58.186Z,56.92
2023-04-23T16:56:28.545Z,56.96
2023-04-23T16:58:58.620Z,57.20
2023-04-23T17:01:27.025Z,56.48
2023-04-23T17:03:55.559Z,56.26
2023-04-23T17:06:29.823Z,56.40
2023-04-23T17:09:01.210Z,56.30
2023-04-23T17:11:32.211Z,56.19
2023-04-23T17:14:00.696Z,56.13
2023-04-23T17:16:29.154Z,56.64
2023-04-23T17:18:58.066Z,56.30
2023-04-23T17:21:28.500Z,55.70
2023-04-23T17:23:57.205Z,55.56
2023-04-23T17:26:25.691Z,55.21
2023-04-23T17:28:54.141Z,55.37
2023-04-23T17:31:22.821Z,54.20
2023-04-23T17:33:50.994Z,54.80
2023-04-23T17:36:19.223Z,54.35
2023-04-23T17:38:49.254Z,54.21
2023-04-23T17:41:19.250Z,54.14
2023-04-23T17:43:49.264Z,54.30
2023-04-23T17:46:18.192Z,54.46
2023-04-23T17:48:46.636Z,54.80
2023-04-23T17:51:14.984Z,55.07
2023-04-23T17:53:48.064Z,55.27
2023-04-23T17:56:17.946Z,55.23
2023-04-23T17:58:46.362Z,55.10
2023-04-23T18:01:15.718Z,55.36
2023-04-23T18:03:44.133Z,55.53
2023-04-23T18:06:13.248Z,55.67
2023-04-23T18:08:42.637Z,55.89
2023-04-23T18:11:11.869Z,55.82
2023-04-23T18:13:41.696Z,56.03
2023-04-23T18:16:09.919Z,55.96
2023-04-23T18:18:38.891Z,56.08
2023-04-23T18:21:07.169Z,56.00
2023-04-23T18:23:36.123Z,55.69
2023-04-23T18:26:04.881Z,55.18
2023-04-23T18:28:34.945Z,55.06
2023-04-23T18:31:05.330Z,55.08
2023-04-23T18:33:43.509Z,54.90
2023-04-23T18:36:22.551Z,55.04
2023-04-23T18:38:52.411Z,55.60
2023-04-23T18:41:20.472Z,52.44
2023-04-23T18:43:48.740Z,48.64
2023-04-23T18:48:58.497Z,48.60
2023-04-23T18:51:33.434Z,50.75
2023-04-23T18:54:02.654Z,52.83
2023-04-23T18:56:32.272Z,54.63
2023-04-23T18:59:00.955Z,55.91
2023-04-23T19:01:30.944Z,57.26
2023-04-23T19:03:59.938Z,58.77
2023-04-23T19:06:28.394Z,60.10
2023-04-23T19:08:56.500Z,60.01
2023-04-23T19:11:24.902Z,60.47
2023-04-23T19:13:53.181Z,62.57
2023-04-23T19:16:21.538Z,60.71
2023-04-23T19:18:51.471Z,59.78
2023-04-23T19:21:19.872Z,59.00
2023-04-23T19:23:48.278Z,57.30
2023-04-23T19:26:16.558Z,56.78
2023-04-23T19:28:44.832Z,57.92
2023-04-23T19:31:13.191Z,59.41
2023-04-23T19:33:45.697Z,60.38
2023-04-23T19:36:15.686Z,61.75
2023-04-23T19:38:44.226Z,62.29
2023-04-23T19:41:12.498Z,62.87
2023-04-23T19:43:41.749Z,63.37
2023-04-23T19:46:10.093Z,64.20
2023-04-23T19:48:38.452Z,64.16
2023-04-23T19:51:07.639Z,65.09
2023-04-23T19:53:37.341Z,65.99
2023-04-23T19:56:08.460Z,66.48
2023-04-23T19:58:37.181Z,67.03
2023-04-23T20:01:06.360Z,67.63
2023-04-23T20:03:36.548Z,67.79
2023-04-23T20:06:05.524Z,68.57
2023-04-23T20:08:42.139Z,68.57
2023-04-23T20:11:12.078Z,68.59
2023-04-23T20:13:40.409Z,69.44
2023-04-23T20:16:12.355Z,69.25
2023-04-23T20:18:42.467Z,69.08
2023-04-23T20:21:10.794Z,68.78
2023-04-23T20:23:39.182Z,69.04
2023-04-23T20:26:07.864Z,69.33
2023-04-23T20:28:37.405Z,68.62
2023-04-23T20:31:05.503Z,69.39
2023-04-23T20:33:34.054Z,69.92
2023-04-23T20:36:02.394Z,69.53
2023-04-23T20:38:33.418Z,69.02
2023-04-23T20:41:02.974Z,69.91
2023-04-23T20:43:32.925Z,69.70
2023-04-23T20:46:03.577Z,69.87
2023-04-23T20:48:32.331Z,70.03
2023-04-23T20:51:02.534Z,70.46
2023-04-23T20:53:30.882Z,70.41
2023-04-23T20:55:58.871Z,72.93
2023-04-23T20:58:26.909Z,76.40
2023-04-23T21:00:55.737Z,78.50
2023-04-23T21:03:25.953Z,78.87
2023-04-23T21:05:54.258Z,78.64
2023-04-23T21:08:22.837Z,77.65
2023-04-23T21:10:51.577Z,76.64
2023-04-23T21:13:19.668Z,76.77
2023-04-23T21:15:48.408Z,75.86
2023-04-23T21:18:17.078Z,75.69
2023-04-23T21:20:46.926Z,74.90
2023-04-23T21:23:15.050Z,75.33
2023-04-23T21:25:43.136Z,74.83
2023-04-23T21:28:11.806Z,74.22
2023-04-23T21:30:47.658Z,74.58
2023-04-23T21:33:16.897Z,74.23
2023-04-23T21:35:46.865Z,73.54
2023-04-23T21:38:15.332Z,73.24
2023-04-23T21:40:44.789Z,73.54
2023-04-23T21:43:13.911Z,73.71
2023-04-23T21:45:42.530Z,73.21
2023-04-23T21:48:10.583Z,73.80
2023-04-23T21:50:38.974Z,72.83
2023-04-23T21:53:10.067Z,73.38
2023-04-23T21:55:38.308Z,72.36
2023-04-23T21:58:17.055Z,72.15
2023-04-23T22:00:47.889Z,71.21
2023-04-23T22:03:19.401Z,70.37
2023-04-23T22:05:55.159Z,70.43
2023-04-23T22:08:26.117Z,70.04
2023-04-23T22:10:54.112Z,69.90
2023-04-23T22:13:23.173Z,68.45
2023-04-23T22:15:51.717Z,68.16
2023-04-23T22:18:20.138Z,67.71
2023-04-23T22:20:49.685Z,67.34
2023-04-23T22:23:19.458Z,68.33
2023-04-23T22:25:49.148Z,68.37
2023-04-23T22:28:18.324Z,67.57
2023-04-23T22:30:46.523Z,67.30
2023-04-23T22:33:14.747Z,67.50
2023-04-23T22:35:42.862Z,66.82
2023-04-23T22:38:11.324Z,66.51
2023-04-23T22:40:39.858Z,66.23
2023-04-23T22:43:09.422Z,65.83
2023-04-23T22:45:37.764Z,66.42
2023-04-23T22:48:06.274Z,66.52
2023-04-23T22:50:34.425Z,66.24
2023-04-23T22:53:02.696Z,66.17
2023-04-23T22:55:31.237Z,66.68
2023-04-23T22:57:59.552Z,65.75
2023-04-23T23:00:29.287Z,66.23
2023-04-23T23:02:57.748Z,65.59
2023-04-23T23:05:26.182Z,66.36
2023-04-23T23:07:55.505Z,66.32
2023-04-23T23:10:23.904Z,67.77
2023-04-23T23:15:51.434Z,67.20
2023-04-23T23:18:19.544Z,67.65
2023-04-23T23:20:48.107Z,67.30
2023-04-23T23:23:16.236Z,67.51
2023-04-23T23:25:44.450Z,67.43
2023-04-23T23:28:12.442Z,68.21
2023-04-23T23:30:41.149Z,67.03
2023-04-23T23:33:11.457Z,67.79
2023-04-23T23:35:40.055Z,68.19
2023-04-23T23:38:09.238Z,68.15
2023-04-23T23:40:37.603Z,67.77
2023-04-23T23:43:06.319Z,67.97
2023-04-23T23:45:34.652Z,68.59
2023-04-23T23:48:05.656Z,68.66
2023-04-23T23:50:35.615Z,68.54
2023-04-23T23:53:03.836Z,68.73
2023-04-23T23:55:32.072Z,68.82
2023-04-23T23:58:00.251Z,69.13
